Ever Lenient — 2HDF9 — position and weather

sailwx.info

Track history (hours):
 
Tides and Currents Weather Stations Pressure Air Temp Water Temp Dewpoint Dewpoint Depression Visibility Wind Speed Wind Dir Waves Ship Positions

Ever Lenient

Last reported at 2018-Aug-12 10:06 UTC. Time now 2018-Aug-19 22:51 UTC.
Position N 34°49' E 139°16'.

Length 335 m; draft 11.2 m.

Type: Ship (hazmat cat D). MMSI: 235102677.

Date/timePositionNaut miles runAvg speedWind from/ knotsBaromVisibWave heightAir tempDewpointWater temp
2018-Aug-12 10:06N 34°49' E 139°16'714.1
2018-Aug-12 09:36N 34°53' E 139°23'113.1
2018-Aug-12 09:30N 34°54' E 139°24'714.0
2018-Aug-12 09:00N 34°58' E 139°31'714.3
2018-Aug-12 08:30N 35°03' E 139°37'714.2
2018-Aug-12 08:00N 35°07' E 139°44'612.4
2018-Aug-12 07:30N 35°13' E 139°46'510.5
2018-Aug-12 07:00N 35°18' E 139°44'5 9.4
2018-Aug-12 06:30N 35°23' E 139°42'612.0
2018-Aug-12 06:00N 35°27' E 139°48'612.5
2018-Aug-12 05:30N 35°33' E 139°51'510.1
2018-Aug-12 05:00N 35°37' E 139°47'0 0.3
2018-Aug-12 04:13N 35°37' E 139°47'0 0.0
2018-Aug-12 03:58N 35°37' E 139°47'0 0.0
2018-Aug-12 03:25N 35°37' E 139°47'0 0.0
2018-Aug-12 02:58N 35°37' E 139°47'0 0.0
2018-Aug-12 02:28N 35°37' E 139°47'0 0.0
2018-Aug-12 01:49N 35°37' E 139°47'0 0.0
2018-Aug-12 01:25N 35°37' E 139°47'0 0.0
2018-Aug-12 00:58N 35°37' E 139°47'0 0.0
2018-Aug-12 00:01N 35°37' E 139°47'0 0.0
2018-Aug-11 23:37N 35°37' E 139°47'0 0.0
2018-Aug-11 23:25N 35°37' E 139°47'0 0.0
2018-Aug-11 22:43N 35°37' E 139°47'0 0.0
2018-Aug-11 22:19N 35°37' E 139°47'0 0.1
2018-Aug-11 21:43N 35°37' E 139°47'0 0.2
2018-Aug-11 21:25N 35°37' E 139°47'0 0.0
2018-Aug-11 20:55N 35°37' E 139°47'0 0.0
2018-Aug-11 20:28N 35°37' E 139°47'0 0.0
2018-Aug-11 19:55N 35°37' E 139°47'0 0.0
2018-Aug-11 19:25N 35°37' E 139°47'0 0.0
2018-Aug-11 18:55N 35°37' E 139°47'0 0.0
2018-Aug-11 18:25N 35°37' E 139°47'0 0.0
2018-Aug-11 17:55N 35°37' E 139°47'0 0.0
2018-Aug-11 17:22N 35°37' E 139°47'0 0.0
2018-Aug-11 16:49N 35°37' E 139°47'0 0.2
2018-Aug-11 16:30N 35°37' E 139°47'1 2.0
2018-Aug-11 16:00N 35°36' E 139°47'4 8.2
2018-Aug-11 15:30N 35°33' E 139°51'5 9.3
2018-Aug-11 15:00N 35°28' E 139°51'713.6
2018-Aug-11 14:30N 35°23' E 139°46'611.4
2018-Aug-11 14:00N 35°17' E 139°45'611.8
2018-Aug-11 13:30N 35°12' E 139°47'510.7
2018-Aug-11 13:00N 35°07' E 139°45'4 9.0
2018-Aug-11 12:30N 35°03' E 139°42'713.1
2018-Aug-11 11:58N 34°56' E 139°42'613.0
2018-Aug-11 11:30N 34°50' E 139°46'712.6
2018-Aug-11 10:58N 34°45' E 139°52'511.5
2018-Aug-11 10:30N 34°44' E 139°58'38212.9
2018-Aug-10 05:00N 33°30' E 147°30'83116.6 220 / 181013.0 5.4 28.025.228.0
2018-Aug-08 03:00N 40°36' E 162°24'96219.2 360 / 181023.0 5.4 19.015.723.0
2018-Aug-06 01:00N 46°42' W 177°06'47318.9 170 / 241026.0 0.3 17.013.512.0
2018-Aug-05 00:00N 46°48' W 165°36'45218.8 290 / 121034.0 0.5 14.010.212.0
2018-Aug-04 00:00N 45°48' W 154°48'44917.9 310 / 311018.0 5.4 15.015.013.0
2018-Aug-02 23:00N 43°54' W 144°36'   230 / 141026.010.8 24.019.420.0
Track history (hours):
 
Tides and Currents Weather Stations Pressure Air Temp Water Temp Dewpoint Dewpoint Depression Visibility Wind Speed Wind Dir Waves Ship Positions

Ever Lenient

Last reported at 2018-Aug-12 10:06 UTC. Time now 2018-Aug-19 22:51 UTC.
Position N 34°49' E 139°16'.

Length 335 m; draft 11.2 m.

Type: Ship (hazmat cat D). MMSI: 235102677.

Date/timePositionNaut miles runAvg speedWind from/ knotsBaromVisibWave heightAir tempDewpointWater temp
2018-Aug-12 10:06N 34°49' E 139°16'714.1
2018-Aug-12 09:36N 34°53' E 139°23'113.1
2018-Aug-12 09:30N 34°54' E 139°24'714.0
2018-Aug-12 09:00N 34°58' E 139°31'714.3
2018-Aug-12 08:30N 35°03' E 139°37'714.2
2018-Aug-12 08:00N 35°07' E 139°44'612.4
2018-Aug-12 07:30N 35°13' E 139°46'510.5
2018-Aug-12 07:00N 35°18' E 139°44'5 9.4
2018-Aug-12 06:30N 35°23' E 139°42'612.0
2018-Aug-12 06:00N 35°27' E 139°48'612.5
2018-Aug-12 05:30N 35°33' E 139°51'510.1
2018-Aug-12 05:00N 35°37' E 139°47'0 0.3
2018-Aug-12 04:13N 35°37' E 139°47'0 0.0
2018-Aug-12 03:58N 35°37' E 139°47'0 0.0
2018-Aug-12 03:25N 35°37' E 139°47'0 0.0
2018-Aug-12 02:58N 35°37' E 139°47'0 0.0
2018-Aug-12 02:28N 35°37' E 139°47'0 0.0
2018-Aug-12 01:49N 35°37' E 139°47'0 0.0
2018-Aug-12 01:25N 35°37' E 139°47'0 0.0
2018-Aug-12 00:58N 35°37' E 139°47'0 0.0
2018-Aug-12 00:01N 35°37' E 139°47'0 0.0
2018-Aug-11 23:37N 35°37' E 139°47'0 0.0
2018-Aug-11 23:25N 35°37' E 139°47'0 0.0
2018-Aug-11 22:43N 35°37' E 139°47'0 0.0
2018-Aug-11 22:19N 35°37' E 139°47'0 0.1
2018-Aug-11 21:43N 35°37' E 139°47'0 0.2
2018-Aug-11 21:25N 35°37' E 139°47'0 0.0
2018-Aug-11 20:55N 35°37' E 139°47'0 0.0
2018-Aug-11 20:28N 35°37' E 139°47'0 0.0
2018-Aug-11 19:55N 35°37' E 139°47'0 0.0
2018-Aug-11 19:25N 35°37' E 139°47'0 0.0
2018-Aug-11 18:55N 35°37' E 139°47'0 0.0
2018-Aug-11 18:25N 35°37' E 139°47'0 0.0
2018-Aug-11 17:55N 35°37' E 139°47'0 0.0
2018-Aug-11 17:22N 35°37' E 139°47'0 0.0
2018-Aug-11 16:49N 35°37' E 139°47'0 0.2
2018-Aug-11 16:30N 35°37' E 139°47'1 2.0
2018-Aug-11 16:00N 35°36' E 139°47'4 8.2
2018-Aug-11 15:30N 35°33' E 139°51'5 9.3
2018-Aug-11 15:00N 35°28' E 139°51'713.6
2018-Aug-11 14:30N 35°23' E 139°46'611.4
2018-Aug-11 14:00N 35°17' E 139°45'611.8
2018-Aug-11 13:30N 35°12' E 139°47'510.7
2018-Aug-11 13:00N 35°07' E 139°45'4 9.0
2018-Aug-11 12:30N 35°03' E 139°42'713.1
2018-Aug-11 11:58N 34°56' E 139°42'613.0
2018-Aug-11 11:30N 34°50' E 139°46'712.6
2018-Aug-11 10:58N 34°45' E 139°52'511.5
2018-Aug-11 10:30N 34°44' E 139°58'38212.9
2018-Aug-10 05:00N 33°30' E 147°30'83116.6 220 / 181013.0 5.4 28.025.228.0
2018-Aug-08 03:00N 40°36' E 162°24'96219.2 360 / 181023.0 5.4 19.015.723.0
2018-Aug-06 01:00N 46°42' W 177°06'47318.9 170 / 241026.0 0.3 17.013.512.0
2018-Aug-05 00:00N 46°48' W 165°36'45218.8 290 / 121034.0 0.5 14.010.212.0
2018-Aug-04 00:00N 45°48' W 154°48'44917.9 310 / 311018.0 5.4 15.015.013.0
2018-Aug-02 23:00N 43°54' W 144°36'   230 / 141026.010.8 24.019.420.0

Dump ship's entire track history